Time;durP1;ratioP1;P1;durP2;ratioP2;P2;SDS_P1;SDS_P2;PMS_P1;PMS_P2;Temp;Humidity;BMP_temperature;BMP_pressure;BME280_temperature;BME280_humidity;BME280_pressure;Samples;Min_cycle;Max_cycle;Signal;HPM_P1;HPM_P2
2022/01/22 00:00:52;;;;;;;5.20;3.43;;;;;;;1.52;100.00;101375.06;5073066;28;20047;-84
2022/01/22 00:03:19;;;;;;;5.37;3.00;;;;;;;1.38;100.00;101386.81;5054670;28;20044;-84
2022/01/22 00:05:46;;;;;;;5.03;3.43;;;;;;;1.33;100.00;101381.44;5056937;28;20093;-85
2022/01/22 00:08:13;;;;;;;5.40;3.20;;;;;;;1.31;100.00;101392.66;5053423;28;20098;-85
2022/01/22 00:10:42;;;;;;;5.53;2.97;;;;;;;1.29;100.00;101389.16;5062634;28;20066;-84
2022/01/22 00:15:55;;;;;;;6.50;3.23;;;;;;;1.27;100.00;101386.50;5089644;27;20057;-84
2022/01/22 00:18:26;;;;;;;4.13;2.75;;;;;;;1.35;100.00;101389.34;5057288;28;20051;-85
2022/01/22 00:20:56;;;;;;;5.80;3.43;;;;;;;1.41;100.00;101389.47;5057305;28;20105;-86
2022/01/22 00:23:26;;;;;;;5.00;2.97;;;;;;;1.34;100.00;101388.41;5075051;28;20043;-85
2022/01/22 00:25:56;;;;;;;5.83;3.17;;;;;;;1.39;100.00;101388.56;5048285;28;20048;-84
2022/01/22 00:28:23;;;;;;;4.80;3.00;;;;;;;1.45;100.00;101390.47;5072197;28;20043;-84
2022/01/22 00:30:50;;;;;;;5.07;3.37;;;;;;;1.41;100.00;101392.09;5059317;28;20040;-84
2022/01/22 00:33:16;;;;;;;6.40;3.13;;;;;;;1.39;100.00;101397.25;5058527;28;20089;-84
2022/01/22 00:35:45;;;;;;;5.03;2.87;;;;;;;1.47;100.00;101396.59;5061173;28;20134;-85
2022/01/22 00:38:13;;;;;;;4.13;2.50;;;;;;;1.56;100.00;101392.53;5075880;28;20830;-84
2022/01/22 00:40:40;;;;;;;4.23;2.87;;;;;;;1.53;100.00;101396.78;5060413;28;20044;-83
2022/01/22 00:43:07;;;;;;;5.23;2.60;;;;;;;1.41;100.00;101389.47;5077574;28;20578;-85
2022/01/22 00:45:33;;;;;;;4.07;2.43;;;;;;;1.50;100.00;101404.47;5058112;28;20037;-85
2022/01/22 00:48:00;;;;;;;3.77;2.63;;;;;;;1.45;100.00;101403.50;5059133;28;20048;-84
2022/01/22 00:50:27;;;;;;;4.10;2.50;;;;;;;1.50;100.00;101405.38;5056851;28;20056;-83
2022/01/22 00:52:53;;;;;;;5.10;2.53;;;;;;;1.47;100.00;101404.41;5037366;28;20048;-84
2022/01/22 00:55:20;;;;;;;3.50;2.27;;;;;;;1.58;100.00;101408.19;5056467;28;20101;-84
2022/01/22 00:57:49;;;;;;;6.07;2.57;;;;;;;1.63;100.00;101415.28;5035085;28;20051;-84
2022/01/22 01:00:17;;;;;;;3.47;2.13;;;;;;;1.59;100.00;101420.38;5053041;28;20612;-84
2022/01/22 01:02:48;;;;;;;3.87;2.43;;;;;;;1.53;100.00;101423.69;5050322;28;20425;-85
2022/01/22 01:05:18;;;;;;;4.82;2.45;;;;;;;1.49;100.00;101414.03;5044982;28;20055;-84
2022/01/22 01:07:45;;;;;;;4.53;2.60;;;;;;;1.52;100.00;101421.06;5055116;28;20102;-85
2022/01/22 01:10:21;;;;;;;3.93;2.30;;;;;;;1.42;100.00;101414.69;5056967;28;20117;-85
2022/01/22 01:12:52;;;;;;;3.60;2.37;;;;;;;1.33;100.00;101422.22;5070472;28;20543;-85
2022/01/22 01:15:42;;;;;;;4.17;2.30;;;;;;;1.37;100.00;101429.31;5054493;28;20550;-84
2022/01/22 01:34:40;;;;;;;4.07;2.60;;;;;;;1.25;100.00;101437.63;5057409;28;20047;-85
2022/01/22 01:37:14;;;;;;;4.53;2.40;;;;;;;1.39;100.00;101449.31;5071985;28;20047;-85
2022/01/22 01:39:43;;;;;;;3.83;2.40;;;;;;;1.32;100.00;101444.78;5041508;28;20128;-84
2022/01/22 01:42:16;;;;;;;4.00;2.10;;;;;;;1.24;100.00;101443.66;5041302;28;20047;-85
2022/01/22 01:44:46;;;;;;;4.40;2.20;;;;;;;1.27;100.00;101448.09;5055695;28;20416;-85
2022/01/22 01:47:15;;;;;;;3.70;2.20;;;;;;;1.25;100.00;101452.34;5074553;28;20040;-85
2022/01/22 01:49:43;;;;;;;4.20;2.50;;;;;;;1.13;100.00;101453.75;5039406;28;20440;-86
2022/01/22 01:52:15;;;;;;;5.60;2.53;;;;;;;1.20;100.00;101448.75;5054737;28;20484;-85
2022/01/22 01:54:58;;;;;;;4.90;2.33;;;;;;;1.22;100.00;101437.53;5034021;28;20417;-85
2022/01/22 01:57:38;;;;;;;3.63;2.40;;;;;;;1.31;100.00;101442.13;5041742;28;20046;-85
2022/01/22 02:00:13;;;;;;;5.20;3.13;;;;;;;1.24;100.00;101453.19;5059030;28;20144;-85
2022/01/22 02:02:40;;;;;;;;;;;;;;;1.27;100.00;101448.97;5049992;28;20040;-86
2022/01/22 02:05:11;;;;;;;5.90;3.20;;;;;;;1.21;100.00;101463.53;5041140;28;19920;-85
2022/01/22 02:07:42;;;;;;;5.93;3.30;;;;;;;1.41;100.00;101472.78;5055838;28;20046;-84
2022/01/22 02:10:18;;;;;;;5.63;3.17;;;;;;;1.35;100.00;101483.06;5041882;28;20050;-85
2022/01/22 02:13:38;;;;;;;4.83;2.83;;;;;;;1.34;100.00;101486.47;5060330;28;20051;-86
2022/01/22 02:23:55;;;;;;;8.47;3.60;;;;;;;1.32;100.00;101488.16;5059853;28;20280;-86
2022/01/22 02:26:22;;;;;;;6.73;3.43;;;;;;;1.31;100.00;101495.06;5053290;28;20044;-86
2022/01/22 02:28:51;;;;;;;6.70;3.53;;;;;;;1.35;100.00;101493.47;5056417;28;20481;-87
2022/01/22 02:34:40;;;;;;;5.43;2.77;;;;;;;1.15;100.00;101499.75;5012200;28;20045;-86
2022/01/22 02:37:12;;;;;;;5.47;2.60;;;;;;;1.25;100.00;101501.81;5053093;28;20501;-86
2022/01/22 02:39:57;;;;;;;9.30;3.97;;;;;;;1.10;100.00;101495.31;5057221;28;20056;-86
2022/01/22 02:42:28;;;;;;;5.47;3.30;;;;;;;1.10;100.00;101510.06;5039107;28;20048;-86
2022/01/22 02:45:00;;;;;;;;;;;;;;;1.09;100.00;101503.03;5041855;28;20047;-87
2022/01/22 02:47:27;;;;;;;6.10;2.53;;;;;;;1.06;100.00;101510.78;5050925;28;19973;-86
2022/01/22 02:49:55;;;;;;;8.93;3.07;;;;;;;1.00;100.00;101506.25;5040989;28;20036;-86
2022/01/22 02:52:25;;;;;;;5.10;2.67;;;;;;;0.98;100.00;101518.31;5038085;28;20545;-85
2022/01/22 02:55:00;;;;;;;4.60;2.50;;;;;;;0.91;100.00;101511.16;5041868;28;20052;-86
2022/01/22 02:57:27;;;;;;;6.10;3.60;;;;;;;0.81;100.00;101520.38;5054284;28;20047;-86
2022/01/22 02:59:53;;;;;;;5.00;3.00;;;;;;;0.87;100.00;101524.03;5040092;28;20036;-86
2022/01/22 03:02:20;;;;;;;5.50;2.80;;;;;;;0.78;100.00;101527.22;5025306;28;20425;-86
2022/01/22 03:04:47;;;;;;;5.67;2.63;;;;;;;0.86;100.00;101543.97;5039155;28;20048;-86
2022/01/22 03:07:13;;;;;;;7.33;4.03;;;;;;;0.96;100.00;101547.75;5038023;28;20044;-85
2022/01/22 03:09:43;;;;;;;5.57;2.70;;;;;;;1.11;100.00;101551.72;5040133;28;20044;-86
2022/01/22 03:17:30;;;;;;;4.77;2.40;;;;;;;1.05;100.00;101559.31;5055124;28;20044;-85
2022/01/22 03:23:06;;;;;;;5.70;3.23;;;;;;;1.09;100.00;101563.81;5049599;28;20086;-85
2022/01/22 03:28:22;;;;;;;7.60;3.30;;;;;;;1.18;100.00;101570.13;5055932;28;20121;-85
2022/01/22 03:30:49;;;;;;;4.33;2.33;;;;;;;1.15;100.00;101570.91;5049603;28;20055;-86
2022/01/22 03:33:19;;;;;;;4.30;2.63;;;;;;;1.01;100.00;101575.69;5042304;28;20493;-87
2022/01/22 03:35:53;;;;;;;9.13;3.30;;;;;;;1.02;100.00;101589.59;5039649;28;20069;-86
2022/01/22 03:38:20;;;;;;;7.70;3.90;;;;;;;0.94;100.00;101596.25;5039308;28;20524;-85
2022/01/22 03:40:49;;;;;;;6.30;2.77;;;;;;;0.93;100.00;101602.28;5115780;23;20039;-82
2022/01/22 03:43:18;;;;;;;7.60;2.97;;;;;;;0.88;100.00;101615.13;5065109;28;20032;-82
2022/01/22 03:45:45;;;;;;;5.73;3.03;;;;;;;0.94;100.00;101620.53;5109753;28;20036;-82
2022/01/22 03:48:11;;;;;;;6.33;3.17;;;;;;;0.98;100.00;101624.13;5057399;28;20058;-82
2022/01/22 03:50:39;;;;;;;5.90;3.80;;;;;;;0.90;100.00;101625.56;5074751;28;20050;-82
2022/01/22 03:53:06;;;;;;;6.90;2.70;;;;;;;0.93;100.00;101623.09;5069575;28;20069;-82
2022/01/22 03:55:51;;;;;;;5.03;2.93;;;;;;;0.88;100.00;101635.94;5065963;28;20090;-82
2022/01/22 03:58:18;;;;;;;7.07;2.77;;;;;;;0.88;100.00;101632.44;5077186;28;20400;-82
2022/01/22 04:00:44;;;;;;;7.53;2.87;;;;;;;0.94;100.00;101630.94;5096358;28;20051;-82
2022/01/22 04:03:27;;;;;;;5.20;3.20;;;;;;;0.83;100.00;101635.75;5090372;28;20043;-81
2022/01/22 04:08:30;;;;;;;8.50;3.67;;;;;;;0.97;100.00;101640.56;5092698;28;20396;-82
2022/01/22 04:10:56;;;;;;;9.57;4.90;;;;;;;0.97;100.00;101645.78;5083680;28;20044;-81
2022/01/22 04:13:30;;;;;;;7.37;3.87;;;;;;;1.04;100.00;101648.63;5074338;28;20056;-82
2022/01/22 04:15:57;;;;;;;7.82;4.35;;;;;;;1.09;100.00;101659.19;5058811;28;20050;-82
2022/01/22 04:27:07;;;;;;;9.90;4.90;;;;;;;0.89;100.00;101670.63;5087161;28;20589;-82
2022/01/22 04:29:30;;;;;;;9.33;4.10;;;;;;;0.83;100.00;101669.59;5077220;28;20408;-82
2022/01/22 04:31:57;;;;;;;6.50;3.70;;;;;;;0.72;100.00;101672.66;5059478;28;20041;-82
2022/01/22 04:34:23;;;;;;;6.47;3.43;;;;;;;0.75;100.00;101685.75;5090753;28;20043;-82
2022/01/22 04:36:50;;;;;;;5.80;3.47;;;;;;;0.68;100.00;101689.88;5073814;28;20097;-83
2022/01/22 04:39:19;;;;;;;5.67;3.40;;;;;;;0.66;100.00;101693.22;5058898;28;20085;-84
2022/01/22 04:41:46;;;;;;;6.13;3.20;;;;;;;0.61;100.00;101684.38;5075908;28;20088;-82
2022/01/22 04:44:13;;;;;;;6.23;3.50;;;;;;;0.65;100.00;101692.34;5086480;28;20507;-83
2022/01/22 04:49:14;;;;;;;5.77;3.57;;;;;;;0.66;100.00;101703.63;5092828;28;20035;-82
2022/01/22 04:57:12;;;;;;;14.00;4.30;;;;;;;0.69;100.00;101716.75;5093339;28;20043;-83
2022/01/22 04:59:38;;;;;;;6.90;3.20;;;;;;;0.72;100.00;101714.25;5091348;28;20036;-82
2022/01/22 05:02:05;;;;;;;7.67;4.07;;;;;;;0.70;100.00;101715.94;5070640;28;20541;-82
2022/01/22 05:04:31;;;;;;;8.23;3.27;;;;;;;0.61;100.00;101726.00;5079407;28;20412;-83
2022/01/22 05:06:58;;;;;;;9.13;4.20;;;;;;;0.64;100.00;101726.97;5077159;28;20474;-83
2022/01/22 05:09:25;;;;;;;7.90;3.33;;;;;;;0.59;100.00;101733.75;5078418;28;20047;-82
2022/01/22 05:11:52;;;;;;;7.77;3.10;;;;;;;0.57;100.00;101733.66;5075384;28;20089;-83
2022/01/22 05:14:18;;;;;;;6.23;3.13;;;;;;;0.66;100.00;101737.44;5077466;28;20092;-83
2022/01/22 05:16:45;;;;;;;6.50;3.17;;;;;;;0.66;100.00;101743.53;5093662;28;20072;-83
2022/01/22 05:19:21;;;;;;;6.50;3.33;;;;;;;0.67;100.00;101739.19;5078184;28;20089;-83
2022/01/22 05:21:50;;;;;;;5.10;2.80;;;;;;;0.62;100.00;101749.44;5059734;28;20051;-83
2022/01/22 05:24:22;;;;;;;6.90;3.30;;;;;;;0.56;100.00;101757.91;5094437;28;20466;-83
2022/01/22 05:32:37;;;;;;;6.23;2.97;;;;;;;0.45;100.00;101773.94;5091651;28;20096;-83
2022/01/22 05:37:49;;;;;;;4.83;2.47;;;;;;;0.22;100.00;101778.22;5109785;28;20653;-83
2022/01/22 05:40:17;;;;;;;6.63;2.93;;;;;;;0.26;100.00;101778.44;5089304;28;20040;-84
2022/01/22 05:42:43;;;;;;;4.53;2.40;;;;;;;0.18;100.00;101785.03;5076279;27;20047;-83
2022/01/22 05:45:10;;;;;;;7.27;2.90;;;;;;;0.15;100.00;101779.69;5086428;28;20685;-83
2022/01/22 05:47:37;;;;;;;5.00;2.37;;;;;;;0.04;100.00;101785.31;5075845;28;20161;-83
2022/01/22 05:50:09;;;;;;;4.50;2.70;;;;;;;0.05;100.00;101793.16;5066828;28;20042;-83
2022/01/22 05:52:50;;;;;;;4.50;2.57;;;;;;;-0.05;100.00;101798.81;5069771;28;20047;-84
2022/01/22 05:55:43;;;;;;;5.97;2.90;;;;;;;-0.05;100.00;101802.28;5081492;28;20078;-84
2022/01/22 06:01:02;;;;;;;3.03;1.80;;;;;;;-0.26;100.00;101813.50;5070775;28;20404;-83
2022/01/22 06:03:29;;;;;;;6.17;2.33;;;;;;;-0.30;100.00;101812.50;5093527;27;20043;-84
2022/01/22 06:05:56;;;;;;;4.13;2.07;;;;;;;-0.39;100.00;101817.28;5069678;28;20092;-83
2022/01/22 06:08:29;;;;;;;4.70;2.17;;;;;;;-0.38;100.00;101817.34;5076189;28;20039;-84
2022/01/22 06:10:58;;;;;;;5.23;2.30;;;;;;;-0.47;100.00;101826.47;5072484;27;20035;-83
2022/01/22 06:13:43;;;;;;;6.43;2.60;;;;;;;-0.58;100.00;101826.91;5076846;28;20071;-83
2022/01/22 06:16:18;;;;;;;3.95;2.63;;;;;;;-0.56;100.00;101826.97;5104588;27;20129;-84
2022/01/22 06:18:44;;;;;;;3.77;2.03;;;;;;;-0.53;100.00;101836.56;5085756;28;20048;-83
2022/01/22 06:21:11;;;;;;;3.97;2.30;;;;;;;-0.62;100.00;101827.56;5071552;28;20044;-83
2022/01/22 06:23:39;;;;;;;6.30;3.27;;;;;;;-0.74;100.00;101833.94;5090587;27;20043;-82
2022/01/22 06:26:07;;;;;;;4.70;2.63;;;;;;;-0.77;100.00;101837.28;5079250;27;20035;-83
2022/01/22 06:28:34;;;;;;;6.67;2.57;;;;;;;-0.79;100.00;101843.22;5061054;28;20035;-84
2022/01/22 06:31:01;;;;;;;5.37;2.10;;;;;;;-0.75;100.00;101852.94;5077095;28;20101;-84
2022/01/22 06:33:28;;;;;;;7.17;3.30;;;;;;;-0.76;100.00;101865.00;5064714;27;20121;-83
2022/01/22 06:35:55;;;;;;;4.57;2.73;;;;;;;-0.75;100.00;101865.91;5081269;27;20073;-83
2022/01/22 06:38:21;;;;;;;4.03;2.17;;;;;;;-0.81;100.00;101874.31;5092700;27;20043;-83
2022/01/22 06:43:34;;;;;;;3.13;2.00;;;;;;;-0.92;100.00;101883.31;5077829;28;20559;-83
2022/01/22 06:46:00;;;;;;;4.87;2.03;;;;;;;-0.91;100.00;101887.69;5071689;27;20050;-83
2022/01/22 06:48:27;;;;;;;4.50;1.90;;;;;;;-0.87;100.00;101893.06;5058626;27;20046;-82
2022/01/22 06:50:54;;;;;;;4.93;2.43;;;;;;;-0.89;100.00;101899.88;5067185;28;20047;-83
2022/01/22 06:53:21;;;;;;;4.50;1.97;;;;;;;-0.89;100.00;101901.59;5069319;27;20043;-83
2022/01/22 06:55:59;;;;;;;4.57;2.17;;;;;;;-0.90;100.00;101903.31;5065230;28;20044;-84
2022/01/22 06:58:26;;;;;;;4.13;2.50;;;;;;;-0.87;100.00;101906.03;5068209;27;20126;-82
2022/01/22 07:00:52;;;;;;;7.13;2.03;;;;;;;-0.88;100.00;101906.84;5068980;28;20050;-82
2022/01/22 07:03:20;;;;;;;3.97;2.07;;;;;;;-0.91;100.00;101908.44;5059404;28;20088;-81
2022/01/22 07:05:46;;;;;;;4.47;2.83;;;;;;;-0.90;100.00;101916.28;5072739;27;20036;-82
2022/01/22 07:08:18;;;;;;;5.57;2.20;;;;;;;-0.84;100.00;101918.28;5069341;28;20442;-82
2022/01/22 07:10:45;;;;;;;4.97;1.93;;;;;;;-0.83;100.00;101921.75;5060005;28;20051;-82
2022/01/22 07:13:11;;;;;;;4.57;1.90;;;;;;;-0.80;100.00;101916.69;5076105;28;20047;-81
2022/01/22 07:15:38;;;;;;;4.90;1.90;;;;;;;-0.78;100.00;101915.94;5059035;28;20036;-81
2022/01/22 07:18:05;;;;;;;8.00;2.30;;;;;;;-0.79;100.00;101915.88;5073521;27;20058;-82
2022/01/22 07:20:39;;;;;;;5.77;2.20;;;;;;;-0.75;100.00;101913.50;5072006;28;20066;-82
2022/01/22 07:23:20;;;;;;;3.70;1.93;;;;;;;-0.81;100.00;101910.63;5090713;27;20088;-81
2022/01/22 07:25:47;;;;;;;6.27;2.30;;;;;;;-0.80;100.00;101919.28;5113979;27;20051;-81
2022/01/22 07:28:13;;;;;;;9.67;2.77;;;;;;;-0.80;100.00;101920.19;5095835;27;20584;-82
2022/01/22 07:30:40;;;;;;;6.13;2.47;;;;;;;-0.82;100.00;101926.13;5110449;28;20515;-81
2022/01/22 07:33:07;;;;;;;4.33;2.20;;;;;;;-0.79;100.00;101932.31;5089090;27;20043;-81
2022/01/22 07:35:34;;;;;;;6.97;2.33;;;;;;;-0.78;100.00;101923.72;5079851;27;20047;-80
2022/01/22 07:38:02;;;;;;;4.90;1.83;;;;;;;-0.78;100.00;101930.63;5056981;28;20040;-82
2022/01/22 07:40:29;;;;;;;3.50;2.00;;;;;;;-0.80;100.00;101927.06;5068850;27;20191;-82
2022/01/22 07:42:56;;;;;;;7.90;3.37;;;;;;;-0.77;100.00;101933.28;5098729;27;20141;-82
2022/01/22 07:45:23;;;;;;;10.00;3.83;;;;;;;-0.80;100.00;101930.56;5093286;27;20088;-81
2022/01/22 07:47:50;;;;;;;8.33;3.97;;;;;;;-0.76;100.00;101926.38;5104236;27;20039;-81
2022/01/22 07:50:17;;;;;;;6.10;3.80;;;;;;;-0.78;100.00;101928.91;5082203;27;20488;-81
2022/01/22 07:52:44;;;;;;;5.97;3.73;;;;;;;-0.77;100.00;101925.50;5074360;27;20081;-81
2022/01/22 07:55:11;;;;;;;5.47;4.00;;;;;;;-0.75;100.00;101933.38;5097001;27;20099;-82
2022/01/22 07:57:37;;;;;;;8.97;3.63;;;;;;;-0.67;100.00;101935.50;5094158;27;20054;-80
2022/01/22 08:00:06;;;;;;;5.57;3.00;;;;;;;-0.71;100.00;101935.28;5095128;27;20063;-81
2022/01/22 08:02:33;;;;;;;6.20;2.70;;;;;;;-0.67;100.00;101942.41;5091705;27;20053;-81
2022/01/22 08:04:59;;;;;;;4.90;3.30;;;;;;;-0.69;100.00;101954.41;5093621;28;20043;-81
2022/01/22 08:07:26;;;;;;;3.83;2.53;;;;;;;-0.69;100.00;101962.19;5078219;28;20066;-82
2022/01/22 08:09:53;;;;;;;3.83;2.20;;;;;;;-0.73;100.00;101970.66;5076445;28;20400;-82
2022/01/22 08:12:19;;;;;;;6.53;2.50;;;;;;;-0.71;100.00;101972.50;5111005;28;20039;-81
2022/01/22 08:14:46;;;;;;;4.20;2.10;;;;;;;-0.68;100.00;101979.53;5079451;28;20103;-82
2022/01/22 08:17:13;;;;;;;4.23;2.13;;;;;;;-0.69;100.00;101982.94;5077472;28;20540;-81
2022/01/22 08:19:39;;;;;;;4.90;2.50;;;;;;;-0.79;100.00;101994.59;5095795;28;20042;-81
2022/01/22 08:22:06;;;;;;;5.33;2.83;;;;;;;-0.85;100.00;101984.81;5081083;28;20051;-80
2022/01/22 08:24:33;;;;;;;5.13;2.80;;;;;;;-0.77;100.00;101979.97;5092889;28;20039;-81
2022/01/22 08:27:16;;;;;;;5.00;2.37;;;;;;;-0.78;100.00;102001.56;5103944;28;20048;-81
2022/01/22 08:29:43;;;;;;;5.10;2.27;;;;;;;-0.65;100.00;102001.34;5106907;28;20040;-81
2022/01/22 08:33:08;;;;;;;7.57;2.27;;;;;;;-0.63;100.00;102011.78;5096870;28;20043;-81
2022/01/22 08:37:42;;;;;;;8.53;2.90;;;;;;;-0.38;100.00;101996.50;5101310;27;20047;-81
2022/01/22 08:40:10;;;;;;;5.97;2.67;;;;;;;-0.29;100.00;102004.72;5087866;27;20454;-81
2022/01/22 08:42:37;;;;;;;6.77;2.47;;;;;;;-0.19;100.00;102011.19;5077098;28;20500;-81
2022/01/22 08:45:05;;;;;;;5.67;2.50;;;;;;;-0.13;100.00;102015.78;5092567;27;20469;-82
2022/01/22 08:47:32;;;;;;;5.93;2.40;;;;;;;-0.02;100.00;102015.44;5096816;27;20039;-82
2022/01/22 08:49:59;;;;;;;5.43;2.30;;;;;;;0.06;100.00;102022.69;5115396;27;20039;-82
2022/01/22 08:52:30;;;;;;;5.20;2.17;;;;;;;0.17;100.00;102026.63;5081169;27;20039;-82
2022/01/22 08:54:56;;;;;;;5.50;2.30;;;;;;;0.23;100.00;102030.38;5097684;27;20035;-82
2022/01/22 08:57:24;;;;;;;5.93;3.30;;;;;;;0.28;100.00;102034.09;5093447;28;20446;-82
2022/01/22 08:59:51;;;;;;;3.90;1.77;;;;;;;0.20;100.00;102032.88;5097583;27;20092;-82
2022/01/22 09:02:18;;;;;;;5.70;1.90;;;;;;;0.32;100.00;102029.88;5080769;27;20194;-82
2022/01/22 09:04:45;;;;;;;4.87;2.23;;;;;;;0.31;100.00;102038.50;5099136;27;20047;-82
2022/01/22 09:07:12;;;;;;;3.47;1.70;;;;;;;0.30;100.00;102030.66;5081062;28;20054;-82
2022/01/22 09:09:41;;;;;;;3.93;2.00;;;;;;;0.35;100.00;102037.84;5093382;27;20054;-82
2022/01/22 09:12:09;;;;;;;2.57;1.70;;;;;;;0.32;100.00;102048.09;5086988;28;20044;-82
2022/01/22 09:14:36;;;;;;;4.70;1.77;;;;;;;0.38;100.00;102050.97;5083027;27;20046;-83
2022/01/22 09:17:03;;;;;;;6.57;2.10;;;;;;;0.35;100.00;102052.56;5080645;27;20059;-83
2022/01/22 09:19:34;;;;;;;4.67;2.00;;;;;;;0.38;100.00;102057.88;5082316;27;20065;-83
2022/01/22 09:22:04;;;;;;;4.13;1.87;;;;;;;0.50;100.00;102067.06;5097801;27;20408;-82
2022/01/22 09:24:31;;;;;;;3.00;1.77;;;;;;;0.52;100.00;102075.84;5099684;27;20104;-82
2022/01/22 09:26:59;;;;;;;5.83;2.17;;;;;;;0.55;100.00;102083.78;5094382;28;20047;-83
2022/01/22 09:29:26;;;;;;;5.87;2.60;;;;;;;0.54;100.00;102086.31;5073502;27;20046;-83
2022/01/22 09:31:52;;;;;;;4.13;2.13;;;;;;;0.54;100.00;102087.19;5079307;28;20043;-82
2022/01/22 09:34:20;;;;;;;6.80;2.53;;;;;;;0.63;100.00;102104.91;5094512;28;20062;-82
2022/01/22 09:36:46;;;;;;;4.07;2.13;;;;;;;0.66;100.00;102102.44;5081537;27;20107;-83
2022/01/22 09:39:13;;;;;;;6.27;1.70;;;;;;;0.71;100.00;102100.03;5094667;27;20035;-83
2022/01/22 09:41:40;;;;;;;3.80;1.80;;;;;;;0.74;100.00;102102.75;5095772;28;20139;-82
2022/01/22 09:44:27;;;;;;;4.70;2.23;;;;;;;0.87;100.00;102099.84;5084590;28;20039;-83
2022/01/22 09:46:54;;;;;;;3.83;2.10;;;;;;;0.83;100.00;102103.13;5075750;28;20035;-82
2022/01/22 09:49:20;;;;;;;3.70;1.87;;;;;;;0.83;100.00;102098.81;5094552;28;20089;-83
2022/01/22 09:51:47;;;;;;;4.90;2.00;;;;;;;0.94;100.00;102101.91;5092314;28;20032;-81
2022/01/22 09:54:14;;;;;;;3.63;1.70;;;;;;;0.90;100.00;102097.38;5094646;28;20571;-82
2022/01/22 09:56:44;;;;;;;4.83;1.50;;;;;;;0.90;100.00;102096.50;5074202;28;20048;-83
2022/01/22 09:59:12;;;;;;;4.33;2.37;;;;;;;0.90;100.00;102102.56;5074833;28;20047;-82
2022/01/22 10:01:39;;;;;;;4.50;1.80;;;;;;;0.95;100.00;102090.66;5072468;28;20040;-83
2022/01/22 10:04:07;;;;;;;6.47;3.80;;;;;;;0.95;100.00;102103.66;5075250;28;20514;-82
2022/01/22 10:06:47;;;;;;;8.13;4.63;;;;;;;1.05;100.00;102099.72;5092740;28;20057;-82
2022/01/22 10:09:24;;;;;;;3.97;2.60;;;;;;;1.12;100.00;102102.66;5075189;28;20043;-82
2022/01/22 10:12:11;;;;;;;4.67;2.40;;;;;;;1.09;100.00;102107.75;5089156;28;20048;-81
2022/01/22 10:15:12;;;;;;;4.50;1.90;;;;;;;1.06;100.00;102110.19;5085224;28;20054;-81
2022/01/22 10:17:41;;;;;;;6.07;2.87;;;;;;;1.28;100.00;102111.97;5073337;28;20039;-81
2022/01/22 10:20:20;;;;;;;6.80;3.57;;;;;;;1.39;100.00;102104.59;5075242;28;20043;-83
2022/01/22 10:22:58;;;;;;;5.27;2.47;;;;;;;1.40;100.00;102103.75;5107230;28;20055;-83
2022/01/22 10:25:31;;;;;;;2.57;1.90;;;;;;;1.50;100.00;102095.47;5093627;28;20661;-81
2022/01/22 10:28:05;;;;;;;5.00;2.57;;;;;;;1.36;100.00;102100.16;5094566;28;20515;-82
2022/01/22 10:30:38;;;;;;;7.73;1.93;;;;;;;1.36;100.00;102100.16;5095016;28;20036;-82
2022/01/22 10:33:27;;;;;;;;;;;;;;;1.43;100.00;102103.91;5079936;28;20796;-85
2022/01/22 10:36:12;;;;;;;5.50;1.93;;;;;;;1.47;100.00;102103.19;5090802;28;19961;-83
2022/01/22 10:38:45;;;;;;;3.77;2.00;;;;;;;1.49;100.00;102111.03;5075272;28;20047;-82
2022/01/22 10:41:14;;;;;;;3.77;1.90;;;;;;;1.65;100.00;102109.09;5072188;28;20899;-84
2022/01/22 10:43:51;;;;;;;4.90;1.80;;;;;;;1.55;100.00;102108.69;5074505;28;20047;-83
2022/01/22 10:46:20;;;;;;;5.27;1.70;;;;;;;1.66;100.00;102100.44;5093389;28;20587;-82
2022/01/22 10:48:55;;;;;;;3.13;1.87;;;;;;;1.96;100.00;102102.47;5061353;28;20528;-82
2022/01/22 10:51:22;;;;;;;3.30;2.00;;;;;;;2.13;100.00;102093.56;5074683;28;20044;-82
2022/01/22 10:53:57;;;;;;;3.43;2.10;;;;;;;2.21;100.00;102099.94;5061426;28;20036;-83
2022/01/22 10:56:31;;;;;;;3.43;1.90;;;;;;;2.29;100.00;102096.72;5074281;28;20096;-82
2022/01/22 10:59:10;;;;;;;2.72;1.25;;;;;;;2.35;100.00;102099.53;5059692;28;20039;-82
2022/01/22 11:01:43;;;;;;;1.73;1.27;;;;;;;2.10;100.00;102103.88;5060912;28;20047;-83
2022/01/22 11:04:15;;;;;;;5.43;1.40;;;;;;;2.07;100.00;102101.13;5078212;28;20131;-82
2022/01/22 11:06:58;;;;;;;4.03;1.40;;;;;;;2.02;100.00;102101.78;5062534;28;20048;-82
2022/01/22 11:09:45;;;;;;;1.67;1.10;;;;;;;1.99;100.00;102105.19;5062636;28;20186;-83
2022/01/22 11:12:12;;;;;;;4.83;1.23;;;;;;;2.32;100.00;102104.66;5075850;28;20036;-82
2022/01/22 11:14:43;;;;;;;3.47;1.03;;;;;;;2.49;100.00;102103.53;5076160;28;20127;-82
2022/01/22 11:17:11;;;;;;;4.10;1.20;;;;;;;2.66;100.00;102107.63;5051279;28;20052;-83
2022/01/22 11:19:39;;;;;;;2.20;1.00;;;;;;;2.66;100.00;102110.22;5082905;28;20048;-83
2022/01/22 11:22:15;;;;;;;2.70;1.33;;;;;;;2.84;100.00;102107.34;5051486;28;20044;-83
2022/01/22 11:24:44;;;;;;;3.47;1.57;;;;;;;2.97;96.67;102100.84;5085747;28;20416;-84
2022/01/22 11:27:15;;;;;;;2.30;1.20;;;;;;;2.90;94.63;102098.84;5107813;28;20047;-84
2022/01/22 11:29:48;;;;;;;2.13;0.90;;;;;;;3.02;92.00;102107.97;5073809;28;20074;-85
2022/01/22 11:32:17;;;;;;;2.93;1.30;;;;;;;2.82;93.19;102104.69;5090067;28;20047;-81
2022/01/22 11:34:47;;;;;;;1.60;0.87;;;;;;;2.95;93.12;102105.13;5095115;28;20526;-82
2022/01/22 11:37:34;;;;;;;1.13;1.03;;;;;;;3.23;90.95;102102.59;5072341;28;20063;-83
2022/01/22 11:40:19;;;;;;;4.60;1.00;;;;;;;3.31;88.93;102101.09;5075929;28;20048;-83
2022/01/22 11:43:10;;;;;;;2.93;2.07;;;;;;;3.20;88.21;102107.72;5256651;22;20067;-82
2022/01/22 11:48:31;;;;;;;2.97;1.35;;;;;;;2.94;91.88;102111.16;5429105;22;20047;-83
2022/01/22 12:05:53;;;;;;;2.03;1.30;;;;;;;2.58;95.63;102127.34;5103072;23;20123;-82
2022/01/22 12:23:26;;;;;;;4.10;1.60;;;;;;;2.67;96.19;102127.66;5179587;23;20032;31
2022/01/22 12:25:59;;;;;;;3.83;1.60;;;;;;;2.71;96.91;102126.06;5214796;23;20031;-85
2022/01/22 12:37:29;;;;;;;2.20;1.50;;;;;;;2.70;99.32;102117.34;5508417;23;20916;-81
2022/01/22 12:46:45;;;;;;;2.70;1.30;;;;;;;2.67;89.41;102101.56;5469662;23;20806;-84
2022/01/22 13:10:11;;;;;;;2.55;1.15;;;;;;;2.51;89.28;102122.72;5185281;23;20648;-82
2022/01/22 13:12:44;;;;;;;3.63;1.10;;;;;;;2.58;91.47;102116.91;5030262;23;20053;-81
2022/01/22 13:21:59;;;;;;;2.40;1.15;;;;;;;2.51;95.58;102122.72;5133121;23;20065;-82
2022/01/22 13:30:30;;;;;;;2.10;1.15;;;;;;;2.44;97.35;102121.66;5180031;23;20053;-81
2022/01/22 13:33:05;;;;;;;3.88;1.30;;;;;;;2.43;95.90;102118.94;5136708;23;20031;-81
2022/01/22 13:47:46;;;;;;;4.33;1.43;;;;;;;2.25;92.37;102119.19;5202474;23;20051;31
2022/01/22 13:50:31;;;;;;;2.90;1.40;;;;;;;2.19;93.14;102104.22;5139728;23;20025;31
2022/01/22 13:52:58;;;;;;;2.80;1.40;;;;;;;2.15;90.43;102110.13;4836311;29;20046;-82
2022/01/22 13:55:26;;;;;;;1.30;1.00;;;;;;;2.32;93.27;102120.28;4949901;23;20052;-79
2022/01/22 13:57:52;;;;;;;3.13;1.17;;;;;;;2.22;95.61;102122.56;5063390;23;20515;-82
2022/01/22 14:08:42;;;;;;;3.17;1.60;;;;;;;2.37;91.56;102116.16;5152294;23;21139;31
2022/01/22 14:11:11;;;;;;;3.73;1.40;;;;;;;2.39;93.35;102112.75;4922844;23;20052;-81
2022/01/22 14:33:42;;;;;;;2.20;0.88;;;;;;;1.76;100.00;102122.53;5010817;23;20407;-79
2022/01/22 14:45:05;;;;;;;;;;;;;;;;;;;;;
2022/01/22 14:48:06;;;;;;;2.30;1.20;;;;;;;1.53;100.00;102139.91;5364621;23;20049;31
2022/01/22 14:50:42;;;;;;;1.20;1.00;;;;;;;1.63;100.00;102144.63;5250589;23;20417;-80
2022/01/22 14:53:36;;;;;;;1.93;1.20;;;;;;;1.59;100.00;102144.44;5092269;23;20124;-81
2022/01/22 14:56:05;;;;;;;1.47;0.97;;;;;;;1.53;100.00;102139.91;5222682;23;20078;-80
2022/01/22 15:01:15;;;;;;;2.00;1.00;;;;;;;1.41;100.00;102149.78;5287862;23;20364;31
2022/01/22 15:07:16;;;;;;;4.43;1.10;;;;;;;1.27;100.00;102135.34;5443930;23;20027;-82
2022/01/22 15:16:29;;;;;;;1.43;1.00;;;;;;;1.12;100.00;102148.63;5075237;23;20948;-81
2022/01/22 15:22:24;;;;;;;2.23;1.50;;;;;;;1.03;100.00;102154.31;5338935;23;20188;-80
2022/01/22 15:24:51;;;;;;;2.00;1.17;;;;;;;1.02;100.00;102143.84;4862251;29;20048;-80
2022/01/22 15:27:20;;;;;;;3.90;1.20;;;;;;;0.99;100.00;102148.91;4856963;29;20056;-80